Paonia, CO

11:24 PM MDT on August 28, 2014 (GMT -0600)
Lamborn Mesa | Change Station
CLOSE
Current Station
Personal Weather Station
Location: Paonia, CO
Elevation: 5900 ft
Nearby Weather Stations

Elev 5900 ft 38.86 °N, 107.59 °W | Updated 9 minutes ago

Clear
Clear
54.9 °F
Feels Like 54.9 °F
N
0.0
Wind Variable Wind from North
Gusts 0.0 mph

Today
High -- | Low -- °F
--% Chance of Precip.
Yesterday
High -- | Low -- °F
Precip. -- in
6:35 AM 7:46 PM
Waxing Crescent, 12% visible
Pressure 30.21 in
Visibility 7.0 miles
Clouds Clear
Dew Point 47 °F
Humidity 74%
Rainfall -999.00 in
Snow Depth 0 in , 0 in
UV 0 out of 12
Pollen 9.10 out of 12
Air Quality Not available.
Flu Activity Not available.
METAR KAJZ 290515Z AUTO 04007KT 7SM CLR 17/11 A3021 RMK AO2 T01710110

More Conditions Fewer Conditions

Pressure 30.21 in
Visibility 7.0 miles
Clouds Clear
Dew Point 47 °F
Humidity 74%
Rainfall -999.00 in
Snow Depth 0 in , 0 in
UV 0 out of 12
Pollen 9.10 out of 12
Air Quality Not available.
Flu Activity Not available.
METAR KAJZ 290515Z AUTO 04007KT 7SM CLR 17/11 A3021 RMK AO2 T01710110

More Conditions Fewer Conditions

10-Day Weather Forecast

Almanac

Astronomy

Aug. 28, 2014 Rise Set
Actual Time 6:35 AM MDT 7:46 PM MDT
Civil Twilight 6:08 AM MDT 8:14 PM MDT
Nautical Twilight 5:35 AM MDT 8:46 PM MDT
Astronomical Twilight 5:00 AM MDT 9:21 PM MDT
Moon 9:28 AM MDT (8/28) 9:14 PM MDT (8/28)
Length of Visible Light 14h 05m
Length of Day
13h 10m
Tomorrow will be 2m 24s shorter.
Waxing Crescent, 12% of the Moon is Illuminated
Aug 29
Waxing Crescent
Sep 2
First Quarter
Sep 8
Full
Sep 15
Last Quarter
Sep 24
New

Yesterday's Extremes

State Highs State Lows

Community

WunderPhotos

Upload Photos

1,748,192 photos uploaded!

Nearby

Snow Depth

Station Depth Elevation
Overland Reservoir 0 in 9880 ft
Park Reservoir 0 in 9960 ft
McClure Pass 0 in 9500 ft
North Lost Trail 0 in 9200 ft
Mesa Lakes 0 in 10000 ft

Earthquake Activity

City Distance Mag. Time & Date
No recent earthquake activity has been reported nearby.
Minimum magnitude displayed is 2.5.

Coastal Water Temperatures

Place Temperature
No Stations Reporting

Nearby Weather Stations